<?xml version="1.0" encoding="UTF-8" standalone="no" ?>
<gpx xmlns="http://www.topografix.com/GPX/1/1" xmlns:xsi="http://www.w3.org/2001/XMLSchema-instance" xsi:schemaLocation="http://www.topografix.com/GPX/1/1 http://www.topografix.com/GPX/1/1/gpx.xsd" version="1.1" creator="VisuGPX - https://www.visugpx.com">
  <metadata>
    <name>Le Dôme de Vaugelaz (73 Beaufortain)</name>
    <desc><![CDATA[Départ des Chapelles (Le Granier)
Photos et commentaires sur : [url]www.photosrandos.fr[/url]]]></desc>
  </metadata>
  <trk>
    <name><![CDATA[Le Dôme de Vaugelaz (73 Beaufortain)_1]]></name>
    <trkseg>
      <trkpt lat="45.58892" lon="6.72841">
        <ele>1348.683</ele>
        <time>2009-01-22T08:57:43Z</time>
      </trkpt>
      <trkpt lat="45.58883" lon="6.72818">
        <ele>1346.301</ele>
        <time>2009-01-22T08:59:59Z</time>
      </trkpt>
      <trkpt lat="45.58868" lon="6.72802">
        <ele>1346.106</ele>
        <time>2009-01-22T09:00:23Z</time>
      </trkpt>
      <trkpt lat="45.58853" lon="6.72786">
        <ele>1345.201</ele>
        <time>2009-01-22T09:00:39Z</time>
      </trkpt>
      <trkpt lat="45.58855" lon="6.72761">
        <ele>1346.672</ele>
        <time>2009-01-22T09:04:43Z</time>
      </trkpt>
      <trkpt lat="45.58867" lon="6.72742">
        <ele>1351.174</ele>
        <time>2009-01-22T09:05:09Z</time>
      </trkpt>
      <trkpt lat="45.58879" lon="6.72722">
        <ele>1352.216</ele>
        <time>2009-01-22T09:05:37Z</time>
      </trkpt>
      <trkpt lat="45.58888" lon="6.72701">
        <ele>1355.241</ele>
        <time>2009-01-22T09:06:11Z</time>
      </trkpt>
      <trkpt lat="45.58896" lon="6.72678">
        <ele>1359.047</ele>
        <time>2009-01-22T09:06:45Z</time>
      </trkpt>
      <trkpt lat="45.58902" lon="6.72655">
        <ele>1365.761</ele>
        <time>2009-01-22T09:07:20Z</time>
      </trkpt>
      <trkpt lat="45.5891" lon="6.72632">
        <ele>1370.031</ele>
        <time>2009-01-22T09:08:00Z</time>
      </trkpt>
      <trkpt lat="45.58915" lon="6.72608">
        <ele>1374.624</ele>
        <time>2009-01-22T09:08:32Z</time>
      </trkpt>
      <trkpt lat="45.58915" lon="6.72582">
        <ele>1378.645</ele>
        <time>2009-01-22T09:09:09Z</time>
      </trkpt>
      <trkpt lat="45.58925" lon="6.72562">
        <ele>1383.845</ele>
        <time>2009-01-22T09:09:49Z</time>
      </trkpt>
      <trkpt lat="45.58929" lon="6.72537">
        <ele>1390.172</ele>
        <time>2009-01-22T09:10:31Z</time>
      </trkpt>
      <trkpt lat="45.58935" lon="6.72514">
        <ele>1395.249</ele>
        <time>2009-01-22T09:11:19Z</time>
      </trkpt>
      <trkpt lat="45.58945" lon="6.72494">
        <ele>1401.635</ele>
        <time>2009-01-22T09:12:07Z</time>
      </trkpt>
      <trkpt lat="45.5895" lon="6.72469">
        <ele>1406.974</ele>
        <time>2009-01-22T09:13:00Z</time>
      </trkpt>
      <trkpt lat="45.58964" lon="6.72456">
        <ele>1413.987</ele>
        <time>2009-01-22T09:13:53Z</time>
      </trkpt>
      <trkpt lat="45.58971" lon="6.72434">
        <ele>1420.586</ele>
        <time>2009-01-22T09:15:01Z</time>
      </trkpt>
      <trkpt lat="45.58988" lon="6.72435">
        <ele>1427.297</ele>
        <time>2009-01-22T09:15:42Z</time>
      </trkpt>
      <trkpt lat="45.58992" lon="6.72411">
        <ele>1434.04</ele>
        <time>2009-01-22T09:16:29Z</time>
      </trkpt>
      <trkpt lat="45.59008" lon="6.72404">
        <ele>1439.897</ele>
        <time>2009-01-22T09:17:25Z</time>
      </trkpt>
      <trkpt lat="45.59012" lon="6.72379">
        <ele>1443.372</ele>
        <time>2009-01-22T09:18:05Z</time>
      </trkpt>
      <trkpt lat="45.59017" lon="6.72356">
        <ele>1450.095</ele>
        <time>2009-01-22T09:18:54Z</time>
      </trkpt>
      <trkpt lat="45.59016" lon="6.72332">
        <ele>1457.534</ele>
        <time>2009-01-22T09:19:34Z</time>
      </trkpt>
      <trkpt lat="45.59023" lon="6.72308">
        <ele>1460.345</ele>
        <time>2009-01-22T09:20:20Z</time>
      </trkpt>
      <trkpt lat="45.59036" lon="6.7229">
        <ele>1466.005</ele>
        <time>2009-01-22T09:21:02Z</time>
      </trkpt>
      <trkpt lat="45.59048" lon="6.72271">
        <ele>1471.327</ele>
        <time>2009-01-22T09:21:45Z</time>
      </trkpt>
      <trkpt lat="45.5906" lon="6.72253">
        <ele>1475.527</ele>
        <time>2009-01-22T09:22:29Z</time>
      </trkpt>
      <trkpt lat="45.59076" lon="6.7224">
        <ele>1479.039</ele>
        <time>2009-01-22T09:23:20Z</time>
      </trkpt>
      <trkpt lat="45.59091" lon="6.72227">
        <ele>1483.737</ele>
        <time>2009-01-22T09:24:11Z</time>
      </trkpt>
      <trkpt lat="45.59101" lon="6.72207">
        <ele>1490.88</ele>
        <time>2009-01-22T09:25:19Z</time>
      </trkpt>
      <trkpt lat="45.59116" lon="6.722">
        <ele>1501.162</ele>
        <time>2009-01-22T09:27:19Z</time>
      </trkpt>
      <trkpt lat="45.59117" lon="6.72177">
        <ele>1509.661</ele>
        <time>2009-01-22T09:28:15Z</time>
      </trkpt>
      <trkpt lat="45.59133" lon="6.72187">
        <ele>1511.818</ele>
        <time>2009-01-22T09:29:12Z</time>
      </trkpt>
      <trkpt lat="45.59149" lon="6.72198">
        <ele>1517.411</ele>
        <time>2009-01-22T09:29:47Z</time>
      </trkpt>
      <trkpt lat="45.59166" lon="6.72207">
        <ele>1521.94</ele>
        <time>2009-01-22T09:30:24Z</time>
      </trkpt>
      <trkpt lat="45.59181" lon="6.72221">
        <ele>1525.7</ele>
        <time>2009-01-22T09:31:04Z</time>
      </trkpt>
      <trkpt lat="45.59197" lon="6.72225">
        <ele>1535.006</ele>
        <time>2009-01-22T09:31:38Z</time>
      </trkpt>
      <trkpt lat="45.59214" lon="6.72231">
        <ele>1537.93</ele>
        <time>2009-01-22T09:32:12Z</time>
      </trkpt>
      <trkpt lat="45.59232" lon="6.72234">
        <ele>1541.182</ele>
        <time>2009-01-22T09:32:55Z</time>
      </trkpt>
      <trkpt lat="45.59229" lon="6.72209">
        <ele>1542.107</ele>
        <time>2009-01-22T09:33:55Z</time>
      </trkpt>
      <trkpt lat="45.59225" lon="6.72186">
        <ele>1548.445</ele>
        <time>2009-01-22T09:34:28Z</time>
      </trkpt>
      <trkpt lat="45.59221" lon="6.72161">
        <ele>1552.332</ele>
        <time>2009-01-22T09:35:06Z</time>
      </trkpt>
      <trkpt lat="45.59215" lon="6.72137">
        <ele>1554.684</ele>
        <time>2009-01-22T09:35:46Z</time>
      </trkpt>
      <trkpt lat="45.59229" lon="6.72126">
        <ele>1563.74</ele>
        <time>2009-01-22T09:36:48Z</time>
      </trkpt>
      <trkpt lat="45.59246" lon="6.72132">
        <ele>1568.955</ele>
        <time>2009-01-22T09:37:25Z</time>
      </trkpt>
      <trkpt lat="45.59263" lon="6.72135">
        <ele>1573.43</ele>
        <time>2009-01-22T09:38:07Z</time>
      </trkpt>
      <trkpt lat="45.59281" lon="6.72137">
        <ele>1579.426</ele>
        <time>2009-01-22T09:38:44Z</time>
      </trkpt>
      <trkpt lat="45.59298" lon="6.7214">
        <ele>1582.988</ele>
        <time>2009-01-22T09:39:25Z</time>
      </trkpt>
      <trkpt lat="45.59295" lon="6.72115">
        <ele>1587.299</ele>
        <time>2009-01-22T09:40:30Z</time>
      </trkpt>
      <trkpt lat="45.59288" lon="6.72092">
        <ele>1590.785</ele>
        <time>2009-01-22T09:41:06Z</time>
      </trkpt>
      <trkpt lat="45.59282" lon="6.72067">
        <ele>1594.075</ele>
        <time>2009-01-22T09:41:46Z</time>
      </trkpt>
      <trkpt lat="45.59275" lon="6.72044">
        <ele>1598.038</ele>
        <time>2009-01-22T09:42:25Z</time>
      </trkpt>
      <trkpt lat="45.59269" lon="6.72019">
        <ele>1602.389</ele>
        <time>2009-01-22T09:43:03Z</time>
      </trkpt>
      <trkpt lat="45.59263" lon="6.71995">
        <ele>1604.389</ele>
        <time>2009-01-22T09:43:41Z</time>
      </trkpt>
      <trkpt lat="45.5926" lon="6.71971">
        <ele>1609.843</ele>
        <time>2009-01-22T09:44:20Z</time>
      </trkpt>
      <trkpt lat="45.59277" lon="6.71966">
        <ele>1616.179</ele>
        <time>2009-01-22T09:45:12Z</time>
      </trkpt>
      <trkpt lat="45.59293" lon="6.71973">
        <ele>1622.003</ele>
        <time>2009-01-22T09:45:51Z</time>
      </trkpt>
      <trkpt lat="45.59311" lon="6.71975">
        <ele>1624.542</ele>
        <time>2009-01-22T09:46:30Z</time>
      </trkpt>
      <trkpt lat="45.59329" lon="6.71977">
        <ele>1629.216</ele>
        <time>2009-01-22T09:47:16Z</time>
      </trkpt>
      <trkpt lat="45.59345" lon="6.71967">
        <ele>1635.917</ele>
        <time>2009-01-22T09:47:49Z</time>
      </trkpt>
      <trkpt lat="45.59362" lon="6.71961">
        <ele>1639.02</ele>
        <time>2009-01-22T09:48:20Z</time>
      </trkpt>
      <trkpt lat="45.59379" lon="6.71959">
        <ele>1649.287</ele>
        <time>2009-01-22T09:48:52Z</time>
      </trkpt>
      <trkpt lat="45.59396" lon="6.71963">
        <ele>1653.91</ele>
        <time>2009-01-22T09:49:19Z</time>
      </trkpt>
      <trkpt lat="45.594" lon="6.71938">
        <ele>1653.479</ele>
        <time>2009-01-22T09:52:15Z</time>
      </trkpt>
      <trkpt lat="45.59393" lon="6.71914">
        <ele>1657.308</ele>
        <time>2009-01-22T09:53:20Z</time>
      </trkpt>
      <trkpt lat="45.59387" lon="6.71891">
        <ele>1662.695</ele>
        <time>2009-01-22T09:53:45Z</time>
      </trkpt>
      <trkpt lat="45.59382" lon="6.71867">
        <ele>1665.664</ele>
        <time>2009-01-22T09:54:10Z</time>
      </trkpt>
      <trkpt lat="45.59381" lon="6.71841">
        <ele>1669.619</ele>
        <time>2009-01-22T09:54:37Z</time>
      </trkpt>
      <trkpt lat="45.59395" lon="6.71827">
        <ele>1677.517</ele>
        <time>2009-01-22T09:56:11Z</time>
      </trkpt>
      <trkpt lat="45.59409" lon="6.71811">
        <ele>1681.027</ele>
        <time>2009-01-22T09:56:38Z</time>
      </trkpt>
      <trkpt lat="45.5942" lon="6.71792">
        <ele>1686.186</ele>
        <time>2009-01-22T09:57:10Z</time>
      </trkpt>
      <trkpt lat="45.59437" lon="6.718">
        <ele>1686.947</ele>
        <time>2009-01-22T10:01:30Z</time>
      </trkpt>
      <trkpt lat="45.59427" lon="6.71779">
        <ele>1691.046</ele>
        <time>2009-01-22T10:05:00Z</time>
      </trkpt>
      <trkpt lat="45.59427" lon="6.71753">
        <ele>1693.253</ele>
        <time>2009-01-22T10:05:37Z</time>
      </trkpt>
      <trkpt lat="45.59423" lon="6.71728">
        <ele>1694.522</ele>
        <time>2009-01-22T10:06:23Z</time>
      </trkpt>
      <trkpt lat="45.59424" lon="6.71703">
        <ele>1702.312</ele>
        <time>2009-01-22T10:07:05Z</time>
      </trkpt>
      <trkpt lat="45.59442" lon="6.71703">
        <ele>1705.408</ele>
        <time>2009-01-22T10:07:50Z</time>
      </trkpt>
      <trkpt lat="45.59459" lon="6.71702">
        <ele>1711.984</ele>
        <time>2009-01-22T10:08:27Z</time>
      </trkpt>
      <trkpt lat="45.59477" lon="6.71699">
        <ele>1714.166</ele>
        <time>2009-01-22T10:09:05Z</time>
      </trkpt>
      <trkpt lat="45.59496" lon="6.71703">
        <ele>1716.363</ele>
        <time>2009-01-22T10:09:46Z</time>
      </trkpt>
      <trkpt lat="45.59511" lon="6.71714">
        <ele>1722.56</ele>
        <time>2009-01-22T10:10:22Z</time>
      </trkpt>
      <trkpt lat="45.59528" lon="6.71721">
        <ele>1726.016</ele>
        <time>2009-01-22T10:10:58Z</time>
      </trkpt>
      <trkpt lat="45.59546" lon="6.7172">
        <ele>1729.248</ele>
        <time>2009-01-22T10:11:38Z</time>
      </trkpt>
      <trkpt lat="45.59564" lon="6.71711">
        <ele>1730.004</ele>
        <time>2009-01-22T10:12:20Z</time>
      </trkpt>
      <trkpt lat="45.59582" lon="6.71706">
        <ele>1736.671</ele>
        <time>2009-01-22T10:12:56Z</time>
      </trkpt>
      <trkpt lat="45.59598" lon="6.71715">
        <ele>1741.265</ele>
        <time>2009-01-22T10:13:35Z</time>
      </trkpt>
      <trkpt lat="45.59614" lon="6.71727">
        <ele>1743.04</ele>
        <time>2009-01-22T10:14:11Z</time>
      </trkpt>
      <trkpt lat="45.59622" lon="6.71705">
        <ele>1749.289</ele>
        <time>2009-01-22T10:15:28Z</time>
      </trkpt>
      <trkpt lat="45.59628" lon="6.71682">
        <ele>1755.856</ele>
        <time>2009-01-22T10:16:08Z</time>
      </trkpt>
      <trkpt lat="45.59637" lon="6.7166">
        <ele>1757.819</ele>
        <time>2009-01-22T10:16:52Z</time>
      </trkpt>
      <trkpt lat="45.59645" lon="6.71638">
        <ele>1763.141</ele>
        <time>2009-01-22T10:17:35Z</time>
      </trkpt>
      <trkpt lat="45.59649" lon="6.71613">
        <ele>1767.361</ele>
        <time>2009-01-22T10:18:27Z</time>
      </trkpt>
      <trkpt lat="45.59656" lon="6.7159">
        <ele>1772.542</ele>
        <time>2009-01-22T10:19:06Z</time>
      </trkpt>
      <trkpt lat="45.59672" lon="6.71582">
        <ele>1779.463</ele>
        <time>2009-01-22T10:19:49Z</time>
      </trkpt>
      <trkpt lat="45.5969" lon="6.71576">
        <ele>1782.321</ele>
        <time>2009-01-22T10:20:34Z</time>
      </trkpt>
      <trkpt lat="45.59693" lon="6.71551">
        <ele>1785.099</ele>
        <time>2009-01-22T10:21:23Z</time>
      </trkpt>
      <trkpt lat="45.59699" lon="6.71527">
        <ele>1789.59</ele>
        <time>2009-01-22T10:22:14Z</time>
      </trkpt>
      <trkpt lat="45.59701" lon="6.71502">
        <ele>1794.166</ele>
        <time>2009-01-22T10:23:05Z</time>
      </trkpt>
      <trkpt lat="45.59709" lon="6.71479">
        <ele>1798.439</ele>
        <time>2009-01-22T10:23:52Z</time>
      </trkpt>
      <trkpt lat="45.5971" lon="6.71453">
        <ele>1804.07</ele>
        <time>2009-01-22T10:24:44Z</time>
      </trkpt>
      <trkpt lat="45.59719" lon="6.71431">
        <ele>1808.042</ele>
        <time>2009-01-22T10:25:26Z</time>
      </trkpt>
      <trkpt lat="45.59735" lon="6.71438">
        <ele>1814.69</ele>
        <time>2009-01-22T10:26:01Z</time>
      </trkpt>
      <trkpt lat="45.59752" lon="6.71426">
        <ele>1817.379</ele>
        <time>2009-01-22T10:26:54Z</time>
      </trkpt>
      <trkpt lat="45.59767" lon="6.71413">
        <ele>1821.205</ele>
        <time>2009-01-22T10:27:30Z</time>
      </trkpt>
      <trkpt lat="45.59768" lon="6.71387">
        <ele>1823.832</ele>
        <time>2009-01-22T10:28:13Z</time>
      </trkpt>
      <trkpt lat="45.59775" lon="6.71363">
        <ele>1826.591</ele>
        <time>2009-01-22T10:28:44Z</time>
      </trkpt>
      <trkpt lat="45.59781" lon="6.71339">
        <ele>1831.046</ele>
        <time>2009-01-22T10:29:19Z</time>
      </trkpt>
      <trkpt lat="45.5979" lon="6.71318">
        <ele>1834.564</ele>
        <time>2009-01-22T10:29:59Z</time>
      </trkpt>
      <trkpt lat="45.59788" lon="6.71293">
        <ele>1839.945</ele>
        <time>2009-01-22T10:30:44Z</time>
      </trkpt>
      <trkpt lat="45.59801" lon="6.71282">
        <ele>1850.653</ele>
        <time>2009-01-22T10:31:56Z</time>
      </trkpt>
      <trkpt lat="45.59819" lon="6.71289">
        <ele>1853.491</ele>
        <time>2009-01-22T10:32:35Z</time>
      </trkpt>
      <trkpt lat="45.59836" lon="6.71296">
        <ele>1858.463</ele>
        <time>2009-01-22T10:33:15Z</time>
      </trkpt>
      <trkpt lat="45.59853" lon="6.71303">
        <ele>1861.615</ele>
        <time>2009-01-22T10:33:57Z</time>
      </trkpt>
      <trkpt lat="45.5987" lon="6.71308">
        <ele>1866.831</ele>
        <time>2009-01-22T10:34:37Z</time>
      </trkpt>
      <trkpt lat="45.59889" lon="6.71309">
        <ele>1869.232</ele>
        <time>2009-01-22T10:35:20Z</time>
      </trkpt>
      <trkpt lat="45.59906" lon="6.71311">
        <ele>1871.95</ele>
        <time>2009-01-22T10:36:04Z</time>
      </trkpt>
      <trkpt lat="45.59904" lon="6.71287">
        <ele>1879.898</ele>
        <time>2009-01-22T10:37:06Z</time>
      </trkpt>
      <trkpt lat="45.59899" lon="6.71262">
        <ele>1883.318</ele>
        <time>2009-01-22T10:37:44Z</time>
      </trkpt>
      <trkpt lat="45.59896" lon="6.71237">
        <ele>1886.806</ele>
        <time>2009-01-22T10:38:21Z</time>
      </trkpt>
      <trkpt lat="45.59896" lon="6.71211">
        <ele>1891.083</ele>
        <time>2009-01-22T10:38:59Z</time>
      </trkpt>
      <trkpt lat="45.59899" lon="6.71186">
        <ele>1892.516</ele>
        <time>2009-01-22T10:39:37Z</time>
      </trkpt>
      <trkpt lat="45.59912" lon="6.7117">
        <ele>1898.222</ele>
        <time>2009-01-22T10:40:13Z</time>
      </trkpt>
      <trkpt lat="45.59923" lon="6.71149">
        <ele>1899.255</ele>
        <time>2009-01-22T10:40:53Z</time>
      </trkpt>
      <trkpt lat="45.59941" lon="6.71146">
        <ele>1904.414</ele>
        <time>2009-01-22T10:41:54Z</time>
      </trkpt>
      <trkpt lat="45.59957" lon="6.71157">
        <ele>1909.418</ele>
        <time>2009-01-22T10:42:33Z</time>
      </trkpt>
      <trkpt lat="45.59972" lon="6.71145">
        <ele>1912.862</ele>
        <time>2009-01-22T10:43:12Z</time>
      </trkpt>
      <trkpt lat="45.59989" lon="6.71134">
        <ele>1915.012</ele>
        <time>2009-01-22T10:43:42Z</time>
      </trkpt>
      <trkpt lat="45.60007" lon="6.71135">
        <ele>1917.313</ele>
        <time>2009-01-22T10:44:15Z</time>
      </trkpt>
      <trkpt lat="45.60024" lon="6.71137">
        <ele>1919.946</ele>
        <time>2009-01-22T10:44:52Z</time>
      </trkpt>
      <trkpt lat="45.6004" lon="6.71126">
        <ele>1926.677</ele>
        <time>2009-01-22T10:45:51Z</time>
      </trkpt>
      <trkpt lat="45.60038" lon="6.711">
        <ele>1931.805</ele>
        <time>2009-01-22T10:46:51Z</time>
      </trkpt>
      <trkpt lat="45.60031" lon="6.71077">
        <ele>1937.062</ele>
        <time>2009-01-22T10:47:29Z</time>
      </trkpt>
      <trkpt lat="45.60024" lon="6.71053">
        <ele>1940.289</ele>
        <time>2009-01-22T10:48:07Z</time>
      </trkpt>
      <trkpt lat="45.60016" lon="6.71031">
        <ele>1946.563</ele>
        <time>2009-01-22T10:48:48Z</time>
      </trkpt>
      <trkpt lat="45.60015" lon="6.71005">
        <ele>1949.374</ele>
        <time>2009-01-22T10:49:26Z</time>
      </trkpt>
      <trkpt lat="45.60015" lon="6.7098">
        <ele>1954.543</ele>
        <time>2009-01-22T10:50:09Z</time>
      </trkpt>
      <trkpt lat="45.60027" lon="6.70961">
        <ele>1960.096</ele>
        <time>2009-01-22T10:50:47Z</time>
      </trkpt>
      <trkpt lat="45.60045" lon="6.70966">
        <ele>1963.973</ele>
        <time>2009-01-22T10:51:17Z</time>
      </trkpt>
      <trkpt lat="45.60062" lon="6.70974">
        <ele>1969.306</ele>
        <time>2009-01-22T10:51:45Z</time>
      </trkpt>
      <trkpt lat="45.60078" lon="6.70969">
        <ele>1976.133</ele>
        <time>2009-01-22T10:52:28Z</time>
      </trkpt>
      <trkpt lat="45.60096" lon="6.70962">
        <ele>1978.841</ele>
        <time>2009-01-22T10:52:52Z</time>
      </trkpt>
      <trkpt lat="45.60114" lon="6.70963">
        <ele>1982.403</ele>
        <time>2009-01-22T10:53:28Z</time>
      </trkpt>
      <trkpt lat="45.60128" lon="6.70951">
        <ele>1990.674</ele>
        <time>2009-01-22T10:54:20Z</time>
      </trkpt>
      <trkpt lat="45.60145" lon="6.70963">
        <ele>1993.498</ele>
        <time>2009-01-22T10:54:51Z</time>
      </trkpt>
      <trkpt lat="45.6016" lon="6.70975">
        <ele>1999.349</ele>
        <time>2009-01-22T10:55:30Z</time>
      </trkpt>
      <trkpt lat="45.60177" lon="6.70979">
        <ele>2006.006</ele>
        <time>2009-01-22T10:55:55Z</time>
      </trkpt>
      <trkpt lat="45.60195" lon="6.70978">
        <ele>2008.162</ele>
        <time>2009-01-22T10:56:22Z</time>
      </trkpt>
      <trkpt lat="45.60213" lon="6.70974">
        <ele>2011.528</ele>
        <time>2009-01-22T10:56:55Z</time>
      </trkpt>
      <trkpt lat="45.6023" lon="6.70965">
        <ele>2018.164</ele>
        <time>2009-01-22T10:57:26Z</time>
      </trkpt>
      <trkpt lat="45.60246" lon="6.70954">
        <ele>2021.28</ele>
        <time>2009-01-22T10:57:55Z</time>
      </trkpt>
      <trkpt lat="45.60262" lon="6.70946">
        <ele>2026.937</ele>
        <time>2009-01-22T10:58:25Z</time>
      </trkpt>
      <trkpt lat="45.6028" lon="6.70938">
        <ele>2031.594</ele>
        <time>2009-01-22T10:58:56Z</time>
      </trkpt>
      <trkpt lat="45.60297" lon="6.7093">
        <ele>2034.568</ele>
        <time>2009-01-22T10:59:22Z</time>
      </trkpt>
      <trkpt lat="45.60315" lon="6.70924">
        <ele>2036.507</ele>
        <time>2009-01-22T10:59:50Z</time>
      </trkpt>
      <trkpt lat="45.60333" lon="6.70918">
        <ele>2041.101</ele>
        <time>2009-01-22T11:00:22Z</time>
      </trkpt>
      <trkpt lat="45.6035" lon="6.70919">
        <ele>2045.266</ele>
        <time>2009-01-22T11:00:54Z</time>
      </trkpt>
      <trkpt lat="45.60368" lon="6.70924">
        <ele>2048.633</ele>
        <time>2009-01-22T11:01:21Z</time>
      </trkpt>
      <trkpt lat="45.60386" lon="6.70926">
        <ele>2053.021</ele>
        <time>2009-01-22T11:01:52Z</time>
      </trkpt>
      <trkpt lat="45.60404" lon="6.70928">
        <ele>2058.343</ele>
        <time>2009-01-22T11:02:19Z</time>
      </trkpt>
      <trkpt lat="45.6042" lon="6.70921">
        <ele>2063.291</ele>
        <time>2009-01-22T11:02:53Z</time>
      </trkpt>
      <trkpt lat="45.60437" lon="6.70912">
        <ele>2069.599</ele>
        <time>2009-01-22T11:03:21Z</time>
      </trkpt>
      <trkpt lat="45.60456" lon="6.70912">
        <ele>2070.999</ele>
        <time>2009-01-22T11:03:52Z</time>
      </trkpt>
      <trkpt lat="45.6047" lon="6.70898">
        <ele>2074.62</ele>
        <time>2009-01-22T11:04:18Z</time>
      </trkpt>
      <trkpt lat="45.60477" lon="6.70874">
        <ele>2079.152</ele>
        <time>2009-01-22T11:04:52Z</time>
      </trkpt>
      <trkpt lat="45.6049" lon="6.70858">
        <ele>2085.17</ele>
        <time>2009-01-22T11:05:25Z</time>
      </trkpt>
      <trkpt lat="45.60508" lon="6.70857">
        <ele>2088.682</ele>
        <time>2009-01-22T11:05:51Z</time>
      </trkpt>
      <trkpt lat="45.60525" lon="6.70852">
        <ele>2094.755</ele>
        <time>2009-01-22T11:06:19Z</time>
      </trkpt>
      <trkpt lat="45.60538" lon="6.70834">
        <ele>2098.628</ele>
        <time>2009-01-22T11:06:49Z</time>
      </trkpt>
      <trkpt lat="45.60551" lon="6.70816">
        <ele>2103.539</ele>
        <time>2009-01-22T11:07:19Z</time>
      </trkpt>
      <trkpt lat="45.60569" lon="6.70808">
        <ele>2106.366</ele>
        <time>2009-01-22T11:07:49Z</time>
      </trkpt>
      <trkpt lat="45.60587" lon="6.70807">
        <ele>2110.3</ele>
        <time>2009-01-22T11:08:18Z</time>
      </trkpt>
      <trkpt lat="45.60602" lon="6.70795">
        <ele>2117.171</ele>
        <time>2009-01-22T11:08:51Z</time>
      </trkpt>
      <trkpt lat="45.6062" lon="6.70795">
        <ele>2119.694</ele>
        <time>2009-01-22T11:09:20Z</time>
      </trkpt>
      <trkpt lat="45.60636" lon="6.70786">
        <ele>2126.049</ele>
        <time>2009-01-22T11:09:47Z</time>
      </trkpt>
      <trkpt lat="45.60653" lon="6.70775">
        <ele>2127.234</ele>
        <time>2009-01-22T11:10:17Z</time>
      </trkpt>
      <trkpt lat="45.60671" lon="6.70766">
        <ele>2129.181</ele>
        <time>2009-01-22T11:10:42Z</time>
      </trkpt>
      <trkpt lat="45.60688" lon="6.70756">
        <ele>2133.101</ele>
        <time>2009-01-22T11:11:06Z</time>
      </trkpt>
      <trkpt lat="45.60704" lon="6.70747">
        <ele>2136.774</ele>
        <time>2009-01-22T11:11:32Z</time>
      </trkpt>
      <trkpt lat="45.6072" lon="6.70735">
        <ele>2139.581</ele>
        <time>2009-01-22T11:11:58Z</time>
      </trkpt>
      <trkpt lat="45.60735" lon="6.7072">
        <ele>2142.787</ele>
        <time>2009-01-22T11:12:23Z</time>
      </trkpt>
      <trkpt lat="45.60752" lon="6.70709">
        <ele>2145.792</ele>
        <time>2009-01-22T11:12:48Z</time>
      </trkpt>
      <trkpt lat="45.60767" lon="6.70697">
        <ele>2146.282</ele>
        <time>2009-01-22T11:13:11Z</time>
      </trkpt>
      <trkpt lat="45.60784" lon="6.70685">
        <ele>2147.424</ele>
        <time>2009-01-22T11:13:33Z</time>
      </trkpt>
      <trkpt lat="45.60799" lon="6.70671">
        <ele>2150.627</ele>
        <time>2009-01-22T11:13:57Z</time>
      </trkpt>
      <trkpt lat="45.60811" lon="6.70652">
        <ele>2151.75</ele>
        <time>2009-01-22T11:14:21Z</time>
      </trkpt>
      <trkpt lat="45.60822" lon="6.70631">
        <ele>2155.177</ele>
        <time>2009-01-22T11:14:47Z</time>
      </trkpt>
      <trkpt lat="45.6083" lon="6.70607">
        <ele>2160.208</ele>
        <time>2009-01-22T11:15:25Z</time>
      </trkpt>
      <trkpt lat="45.60835" lon="6.70582">
        <ele>2163.743</ele>
        <time>2009-01-22T11:15:53Z</time>
      </trkpt>
      <trkpt lat="45.60835" lon="6.70557">
        <ele>2168.873</ele>
        <time>2009-01-22T11:16:27Z</time>
      </trkpt>
      <trkpt lat="45.60834" lon="6.70531">
        <ele>2172.735</ele>
        <time>2009-01-22T11:17:01Z</time>
      </trkpt>
      <trkpt lat="45.60835" lon="6.70505">
        <ele>2176.827</ele>
        <time>2009-01-22T11:17:23Z</time>
      </trkpt>
      <trkpt lat="45.60834" lon="6.7048">
        <ele>2180.944</ele>
        <time>2009-01-22T11:17:49Z</time>
      </trkpt>
      <trkpt lat="45.60833" lon="6.70454">
        <ele>2185.194</ele>
        <time>2009-01-22T11:18:15Z</time>
      </trkpt>
      <trkpt lat="45.60836" lon="6.70429">
        <ele>2189.825</ele>
        <time>2009-01-22T11:18:46Z</time>
      </trkpt>
      <trkpt lat="45.60842" lon="6.70405">
        <ele>2193.57</ele>
        <time>2009-01-22T11:19:24Z</time>
      </trkpt>
      <trkpt lat="45.60853" lon="6.70383">
        <ele>2193.848</ele>
        <time>2009-01-22T11:19:53Z</time>
      </trkpt>
      <trkpt lat="45.60868" lon="6.70371">
        <ele>2199.847</ele>
        <time>2009-01-22T11:20:24Z</time>
      </trkpt>
      <trkpt lat="45.60886" lon="6.70377">
        <ele>2202.159</ele>
        <time>2009-01-22T11:20:52Z</time>
      </trkpt>
      <trkpt lat="45.60902" lon="6.70366">
        <ele>2207.92</ele>
        <time>2009-01-22T11:21:21Z</time>
      </trkpt>
      <trkpt lat="45.60917" lon="6.70352">
        <ele>2210.896</ele>
        <time>2009-01-22T11:21:49Z</time>
      </trkpt>
      <trkpt lat="45.6093" lon="6.70333">
        <ele>2213.852</ele>
        <time>2009-01-22T11:22:12Z</time>
      </trkpt>
      <trkpt lat="45.60944" lon="6.70317">
        <ele>2214.018</ele>
        <time>2009-01-22T11:22:33Z</time>
      </trkpt>
      <trkpt lat="45.60956" lon="6.70297">
        <ele>2216.351</ele>
        <time>2009-01-22T11:22:58Z</time>
      </trkpt>
      <trkpt lat="45.60962" lon="6.70273">
        <ele>2221.753</ele>
        <time>2009-01-22T11:23:33Z</time>
      </trkpt>
      <trkpt lat="45.60975" lon="6.70256">
        <ele>2227.125</ele>
        <time>2009-01-22T11:24:02Z</time>
      </trkpt>
      <trkpt lat="45.6099" lon="6.70241">
        <ele>2229.323</ele>
        <time>2009-01-22T11:24:29Z</time>
      </trkpt>
      <trkpt lat="45.61003" lon="6.70223">
        <ele>2231.754</ele>
        <time>2009-01-22T11:24:56Z</time>
      </trkpt>
      <trkpt lat="45.61018" lon="6.70211">
        <ele>2238.08</ele>
        <time>2009-01-22T11:25:34Z</time>
      </trkpt>
      <trkpt lat="45.61031" lon="6.70193">
        <ele>2239.979</ele>
        <time>2009-01-22T11:25:58Z</time>
      </trkpt>
      <trkpt lat="45.61043" lon="6.70175">
        <ele>2245.684</ele>
        <time>2009-01-22T11:26:30Z</time>
      </trkpt>
      <trkpt lat="45.61052" lon="6.70152">
        <ele>2250.704</ele>
        <time>2009-01-22T11:27:02Z</time>
      </trkpt>
      <trkpt lat="45.61063" lon="6.70133">
        <ele>2253.222</ele>
        <time>2009-01-22T11:27:40Z</time>
      </trkpt>
      <trkpt lat="45.61073" lon="6.70112">
        <ele>2259.138</ele>
        <time>2009-01-22T11:28:08Z</time>
      </trkpt>
      <trkpt lat="45.61082" lon="6.7009">
        <ele>2265.111</ele>
        <time>2009-01-22T11:28:34Z</time>
      </trkpt>
      <trkpt lat="45.61096" lon="6.70075">
        <ele>2266.083</ele>
        <time>2009-01-22T11:29:03Z</time>
      </trkpt>
      <trkpt lat="45.61078" lon="6.70075">
        <ele>2266.388</ele>
        <time>2009-01-22T11:29:31Z</time>
      </trkpt>
      <trkpt lat="45.61096" lon="6.70073">
        <ele>2268.099</ele>
        <time>2009-01-22T11:50:20Z</time>
      </trkpt>
      <trkpt lat="45.61111" lon="6.70058">
        <ele>2269.031</ele>
        <time>2009-01-22T11:50:47Z</time>
      </trkpt>
      <trkpt lat="45.61123" lon="6.70038">
        <ele>2269.325</ele>
        <time>2009-01-22T11:51:14Z</time>
      </trkpt>
      <trkpt lat="45.61136" lon="6.70019">
        <ele>2271.832</ele>
        <time>2009-01-22T11:51:49Z</time>
      </trkpt>
      <trkpt lat="45.61122" lon="6.70036">
        <ele>2271.844</ele>
        <time>2009-01-22T11:54:58Z</time>
      </trkpt>
      <trkpt lat="45.61104" lon="6.70039">
        <ele>2268.771</ele>
        <time>2009-01-22T11:55:10Z</time>
      </trkpt>
      <trkpt lat="45.61085" lon="6.70041">
        <ele>2267.08</ele>
        <time>2009-01-22T11:55:28Z</time>
      </trkpt>
      <trkpt lat="45.61067" lon="6.70039">
        <ele>2266.939</ele>
        <time>2009-01-22T11:55:47Z</time>
      </trkpt>
      <trkpt lat="45.61072" lon="6.70013">
        <ele>2265.475</ele>
        <time>2009-01-22T11:56:28Z</time>
      </trkpt>
      <trkpt lat="45.61072" lon="6.70011">
        <ele>2264.434</ele>
        <time>2009-01-22T12:15:57Z</time>
      </trkpt>
      <trkpt lat="45.61055" lon="6.70021">
        <ele>2261.841</ele>
        <time>2009-01-22T12:25:58Z</time>
      </trkpt>
      <trkpt lat="45.61045" lon="6.70043">
        <ele>2264.142</ele>
        <time>2009-01-22T12:26:30Z</time>
      </trkpt>
      <trkpt lat="45.61052" lon="6.70067">
        <ele>2263.401</ele>
        <time>2009-01-22T12:28:05Z</time>
      </trkpt>
      <trkpt lat="45.61055" lon="6.70093">
        <ele>2264.232</ele>
        <time>2009-01-22T12:29:30Z</time>
      </trkpt>
      <trkpt lat="45.61042" lon="6.70116">
        <ele>2259.635</ele>
        <time>2009-01-22T12:29:37Z</time>
      </trkpt>
      <trkpt lat="45.61031" lon="6.70138">
        <ele>2256.526</ele>
        <time>2009-01-22T12:29:43Z</time>
      </trkpt>
      <trkpt lat="45.6102" lon="6.7016">
        <ele>2250.971</ele>
        <time>2009-01-22T12:29:48Z</time>
      </trkpt>
      <trkpt lat="45.61007" lon="6.70182">
        <ele>2244.635</ele>
        <time>2009-01-22T12:29:52Z</time>
      </trkpt>
      <trkpt lat="45.60996" lon="6.70204">
        <ele>2237.043</ele>
        <time>2009-01-22T12:30:01Z</time>
      </trkpt>
      <trkpt lat="45.60983" lon="6.70226">
        <ele>2231.726</ele>
        <time>2009-01-22T12:30:06Z</time>
      </trkpt>
      <trkpt lat="45.6097" lon="6.7025">
        <ele>2227.892</ele>
        <time>2009-01-22T12:30:11Z</time>
      </trkpt>
      <trkpt lat="45.60957" lon="6.70267">
        <ele>2223.462</ele>
        <time>2009-01-22T12:30:15Z</time>
      </trkpt>
      <trkpt lat="45.60944" lon="6.7029">
        <ele>2217.375</ele>
        <time>2009-01-22T12:30:19Z</time>
      </trkpt>
      <trkpt lat="45.6093" lon="6.70307">
        <ele>2213.799</ele>
        <time>2009-01-22T12:30:23Z</time>
      </trkpt>
      <trkpt lat="45.60913" lon="6.70325">
        <ele>2210.852</ele>
        <time>2009-01-22T12:30:28Z</time>
      </trkpt>
      <trkpt lat="45.60895" lon="6.7033">
        <ele>2208.779</ele>
        <time>2009-01-22T12:34:03Z</time>
      </trkpt>
      <trkpt lat="45.60878" lon="6.70338">
        <ele>2205.969</ele>
        <time>2009-01-22T12:34:07Z</time>
      </trkpt>
      <trkpt lat="45.60862" lon="6.70352">
        <ele>2203.776</ele>
        <time>2009-01-22T12:34:13Z</time>
      </trkpt>
      <trkpt lat="45.60843" lon="6.70357">
        <ele>2199.316</ele>
        <time>2009-01-22T12:35:30Z</time>
      </trkpt>
      <trkpt lat="45.60823" lon="6.70362">
        <ele>2195.011</ele>
        <time>2009-01-22T12:35:35Z</time>
      </trkpt>
      <trkpt lat="45.60804" lon="6.70365">
        <ele>2192.241</ele>
        <time>2009-01-22T12:35:39Z</time>
      </trkpt>
      <trkpt lat="45.60785" lon="6.7037">
        <ele>2189.402</ele>
        <time>2009-01-22T12:35:44Z</time>
      </trkpt>
      <trkpt lat="45.60768" lon="6.70377">
        <ele>2185.816</ele>
        <time>2009-01-22T12:35:48Z</time>
      </trkpt>
      <trkpt lat="45.60749" lon="6.70382">
        <ele>2182.723</ele>
        <time>2009-01-22T12:35:51Z</time>
      </trkpt>
      <trkpt lat="45.6073" lon="6.70388">
        <ele>2181.689</ele>
        <time>2009-01-22T12:35:55Z</time>
      </trkpt>
      <trkpt lat="45.60712" lon="6.70401">
        <ele>2175.707</ele>
        <time>2009-01-22T12:36:01Z</time>
      </trkpt>
      <trkpt lat="45.60691" lon="6.70415">
        <ele>2170.49</ele>
        <time>2009-01-22T12:36:05Z</time>
      </trkpt>
      <trkpt lat="45.60674" lon="6.70427">
        <ele>2166.542</ele>
        <time>2009-01-22T12:36:08Z</time>
      </trkpt>
      <trkpt lat="45.60656" lon="6.70442">
        <ele>2165.247</ele>
        <time>2009-01-22T12:36:12Z</time>
      </trkpt>
      <trkpt lat="45.60641" lon="6.70456">
        <ele>2164.726</ele>
        <time>2009-01-22T12:36:25Z</time>
      </trkpt>
      <trkpt lat="45.60632" lon="6.70479">
        <ele>2162.781</ele>
        <time>2009-01-22T12:36:53Z</time>
      </trkpt>
      <trkpt lat="45.60625" lon="6.70504">
        <ele>2161.113</ele>
        <time>2009-01-22T12:37:09Z</time>
      </trkpt>
      <trkpt lat="45.60623" lon="6.7053">
        <ele>2160.501</ele>
        <time>2009-01-22T12:37:23Z</time>
      </trkpt>
      <trkpt lat="45.60625" lon="6.70558">
        <ele>2156.645</ele>
        <time>2009-01-22T12:37:34Z</time>
      </trkpt>
      <trkpt lat="45.60622" lon="6.70586">
        <ele>2151.711</ele>
        <time>2009-01-22T12:37:39Z</time>
      </trkpt>
      <trkpt lat="45.60614" lon="6.70609">
        <ele>2146.257</ele>
        <time>2009-01-22T12:37:43Z</time>
      </trkpt>
      <trkpt lat="45.60607" lon="6.70636">
        <ele>2141.312</ele>
        <time>2009-01-22T12:37:49Z</time>
      </trkpt>
      <trkpt lat="45.60596" lon="6.70655">
        <ele>2134.075</ele>
        <time>2009-01-22T12:37:53Z</time>
      </trkpt>
      <trkpt lat="45.60581" lon="6.70674">
        <ele>2126.762</ele>
        <time>2009-01-22T12:37:57Z</time>
      </trkpt>
      <trkpt lat="45.60569" lon="6.70699">
        <ele>2120.653</ele>
        <time>2009-01-22T12:38:01Z</time>
      </trkpt>
      <trkpt lat="45.60558" lon="6.70719">
        <ele>2113.499</ele>
        <time>2009-01-22T12:38:05Z</time>
      </trkpt>
      <trkpt lat="45.60546" lon="6.70739">
        <ele>2106.739</ele>
        <time>2009-01-22T12:38:09Z</time>
      </trkpt>
      <trkpt lat="45.60531" lon="6.70759">
        <ele>2098.476</ele>
        <time>2009-01-22T12:38:13Z</time>
      </trkpt>
      <trkpt lat="45.60518" lon="6.70785">
        <ele>2092.616</ele>
        <time>2009-01-22T12:38:16Z</time>
      </trkpt>
      <trkpt lat="45.60504" lon="6.70802">
        <ele>2089.493</ele>
        <time>2009-01-22T12:38:19Z</time>
      </trkpt>
      <trkpt lat="45.60488" lon="6.70822">
        <ele>2084.804</ele>
        <time>2009-01-22T12:38:23Z</time>
      </trkpt>
      <trkpt lat="45.60476" lon="6.70842">
        <ele>2083.284</ele>
        <time>2009-01-22T12:38:51Z</time>
      </trkpt>
      <trkpt lat="45.60461" lon="6.70862">
        <ele>2076.37</ele>
        <time>2009-01-22T12:39:52Z</time>
      </trkpt>
      <trkpt lat="45.60443" lon="6.70881">
        <ele>2073.374</ele>
        <time>2009-01-22T12:39:55Z</time>
      </trkpt>
      <trkpt lat="45.60424" lon="6.70897">
        <ele>2070.255</ele>
        <time>2009-01-22T12:40:00Z</time>
      </trkpt>
      <trkpt lat="45.60407" lon="6.70908">
        <ele>2065.531</ele>
        <time>2009-01-22T12:40:04Z</time>
      </trkpt>
      <trkpt lat="45.60388" lon="6.70919">
        <ele>2059.851</ele>
        <time>2009-01-22T12:40:09Z</time>
      </trkpt>
      <trkpt lat="45.6037" lon="6.70927">
        <ele>2053.731</ele>
        <time>2009-01-22T12:40:13Z</time>
      </trkpt>
      <trkpt lat="45.60351" lon="6.70939">
        <ele>2046.755</ele>
        <time>2009-01-22T12:40:17Z</time>
      </trkpt>
      <trkpt lat="45.60333" lon="6.70956">
        <ele>2040.064</ele>
        <time>2009-01-22T12:40:21Z</time>
      </trkpt>
      <trkpt lat="45.60316" lon="6.70963">
        <ele>2035.168</ele>
        <time>2009-01-22T12:40:24Z</time>
      </trkpt>
      <trkpt lat="45.60295" lon="6.70969">
        <ele>2032.053</ele>
        <time>2009-01-22T12:40:28Z</time>
      </trkpt>
      <trkpt lat="45.60275" lon="6.70978">
        <ele>2027.546</ele>
        <time>2009-01-22T12:40:32Z</time>
      </trkpt>
      <trkpt lat="45.60254" lon="6.70989">
        <ele>2022.65</ele>
        <time>2009-01-22T12:40:36Z</time>
      </trkpt>
      <trkpt lat="45.60234" lon="6.70997">
        <ele>2018.321</ele>
        <time>2009-01-22T12:40:40Z</time>
      </trkpt>
      <trkpt lat="45.60215" lon="6.70998">
        <ele>2016.505</ele>
        <time>2009-01-22T12:40:45Z</time>
      </trkpt>
      <trkpt lat="45.60202" lon="6.70979">
        <ele>2012.6</ele>
        <time>2009-01-22T12:41:12Z</time>
      </trkpt>
      <trkpt lat="45.60185" lon="6.70972">
        <ele>2009.702</ele>
        <time>2009-01-22T12:41:19Z</time>
      </trkpt>
      <trkpt lat="45.60167" lon="6.70961">
        <ele>2006.197</ele>
        <time>2009-01-22T12:41:31Z</time>
      </trkpt>
      <trkpt lat="45.6015" lon="6.70948">
        <ele>2003.58</ele>
        <time>2009-01-22T12:42:55Z</time>
      </trkpt>
      <trkpt lat="45.60129" lon="6.70945">
        <ele>1996.275</ele>
        <time>2009-01-22T12:43:00Z</time>
      </trkpt>
      <trkpt lat="45.60109" lon="6.70934">
        <ele>1990.126</ele>
        <time>2009-01-22T12:43:04Z</time>
      </trkpt>
      <trkpt lat="45.60092" lon="6.70924">
        <ele>1986.328</ele>
        <time>2009-01-22T12:43:09Z</time>
      </trkpt>
      <trkpt lat="45.60083" lon="6.70901">
        <ele>1981.505</ele>
        <time>2009-01-22T12:43:16Z</time>
      </trkpt>
      <trkpt lat="45.60063" lon="6.70894">
        <ele>1976.872</ele>
        <time>2009-01-22T12:43:20Z</time>
      </trkpt>
      <trkpt lat="45.60041" lon="6.70894">
        <ele>1972.822</ele>
        <time>2009-01-22T12:43:24Z</time>
      </trkpt>
      <trkpt lat="45.60024" lon="6.70905">
        <ele>1968.671</ele>
        <time>2009-01-22T12:44:28Z</time>
      </trkpt>
      <trkpt lat="45.60006" lon="6.70922">
        <ele>1961.385</ele>
        <time>2009-01-22T12:44:32Z</time>
      </trkpt>
      <trkpt lat="45.59993" lon="6.70943">
        <ele>1954.866</ele>
        <time>2009-01-22T12:44:36Z</time>
      </trkpt>
      <trkpt lat="45.59976" lon="6.7095">
        <ele>1946.908</ele>
        <time>2009-01-22T12:44:40Z</time>
      </trkpt>
      <trkpt lat="45.59958" lon="6.70968">
        <ele>1941.204</ele>
        <time>2009-01-22T12:44:44Z</time>
      </trkpt>
      <trkpt lat="45.59937" lon="6.70973">
        <ele>1934.388</ele>
        <time>2009-01-22T12:44:49Z</time>
      </trkpt>
      <trkpt lat="45.59924" lon="6.70991">
        <ele>1927.779</ele>
        <time>2009-01-22T12:44:53Z</time>
      </trkpt>
      <trkpt lat="45.5991" lon="6.71007">
        <ele>1922.643</ele>
        <time>2009-01-22T12:44:56Z</time>
      </trkpt>
      <trkpt lat="45.59894" lon="6.71026">
        <ele>1919.045</ele>
        <time>2009-01-22T12:45:00Z</time>
      </trkpt>
      <trkpt lat="45.5988" lon="6.71046">
        <ele>1910.023</ele>
        <time>2009-01-22T12:46:44Z</time>
      </trkpt>
      <trkpt lat="45.5986" lon="6.71061">
        <ele>1901.215</ele>
        <time>2009-01-22T12:46:48Z</time>
      </trkpt>
      <trkpt lat="45.59845" lon="6.71077">
        <ele>1895.737</ele>
        <time>2009-01-22T12:46:51Z</time>
      </trkpt>
      <trkpt lat="45.59832" lon="6.71098">
        <ele>1892.502</ele>
        <time>2009-01-22T12:46:55Z</time>
      </trkpt>
      <trkpt lat="45.59821" lon="6.7112">
        <ele>1886.466</ele>
        <time>2009-01-22T12:46:59Z</time>
      </trkpt>
      <trkpt lat="45.59811" lon="6.71149">
        <ele>1879.493</ele>
        <time>2009-01-22T12:47:03Z</time>
      </trkpt>
      <trkpt lat="45.59801" lon="6.71174">
        <ele>1875.324</ele>
        <time>2009-01-22T12:47:06Z</time>
      </trkpt>
      <trkpt lat="45.59794" lon="6.71199">
        <ele>1866.949</ele>
        <time>2009-01-22T12:47:10Z</time>
      </trkpt>
      <trkpt lat="45.59785" lon="6.71221">
        <ele>1860.844</ele>
        <time>2009-01-22T12:47:14Z</time>
      </trkpt>
      <trkpt lat="45.59786" lon="6.71247">
        <ele>1857.278</ele>
        <time>2009-01-22T12:47:36Z</time>
      </trkpt>
      <trkpt lat="45.59799" lon="6.71268">
        <ele>1858.288</ele>
        <time>2009-01-22T12:47:53Z</time>
      </trkpt>
      <trkpt lat="45.59793" lon="6.7129">
        <ele>1851.991</ele>
        <time>2009-01-22T12:48:42Z</time>
      </trkpt>
      <trkpt lat="45.59777" lon="6.71303">
        <ele>1845.147</ele>
        <time>2009-01-22T12:48:47Z</time>
      </trkpt>
      <trkpt lat="45.59759" lon="6.71312">
        <ele>1840.515</ele>
        <time>2009-01-22T12:48:53Z</time>
      </trkpt>
      <trkpt lat="45.59746" lon="6.71331">
        <ele>1835.624</ele>
        <time>2009-01-22T12:54:28Z</time>
      </trkpt>
      <trkpt lat="45.59732" lon="6.7135">
        <ele>1830.247</ele>
        <time>2009-01-22T12:55:02Z</time>
      </trkpt>
      <trkpt lat="45.59719" lon="6.71373">
        <ele>1822.541</ele>
        <time>2009-01-22T12:55:06Z</time>
      </trkpt>
      <trkpt lat="45.59705" lon="6.71397">
        <ele>1815.521</ele>
        <time>2009-01-22T12:55:10Z</time>
      </trkpt>
      <trkpt lat="45.59694" lon="6.71416">
        <ele>1810.516</ele>
        <time>2009-01-22T12:55:13Z</time>
      </trkpt>
      <trkpt lat="45.59681" lon="6.7144">
        <ele>1805.823</ele>
        <time>2009-01-22T12:55:17Z</time>
      </trkpt>
      <trkpt lat="45.59669" lon="6.71463">
        <ele>1798.482</ele>
        <time>2009-01-22T12:55:21Z</time>
      </trkpt>
      <trkpt lat="45.59662" lon="6.71489">
        <ele>1791.267</ele>
        <time>2009-01-22T12:55:25Z</time>
      </trkpt>
      <trkpt lat="45.59653" lon="6.71516">
        <ele>1784.081</ele>
        <time>2009-01-22T12:55:29Z</time>
      </trkpt>
      <trkpt lat="45.59641" lon="6.71546">
        <ele>1778.377</ele>
        <time>2009-01-22T12:55:33Z</time>
      </trkpt>
      <trkpt lat="45.59628" lon="6.71568">
        <ele>1775.675</ele>
        <time>2009-01-22T12:55:36Z</time>
      </trkpt>
      <trkpt lat="45.59615" lon="6.71587">
        <ele>1774.661</ele>
        <time>2009-01-22T12:55:39Z</time>
      </trkpt>
      <trkpt lat="45.59597" lon="6.71588">
        <ele>1773.329</ele>
        <time>2009-01-22T12:56:29Z</time>
      </trkpt>
      <trkpt lat="45.59578" lon="6.71593">
        <ele>1765.91</ele>
        <time>2009-01-22T12:56:38Z</time>
      </trkpt>
      <trkpt lat="45.59567" lon="6.71615">
        <ele>1758.792</ele>
        <time>2009-01-22T12:56:42Z</time>
      </trkpt>
      <trkpt lat="45.59551" lon="6.71627">
        <ele>1757.021</ele>
        <time>2009-01-22T12:56:47Z</time>
      </trkpt>
      <trkpt lat="45.59538" lon="6.71648">
        <ele>1749.395</ele>
        <time>2009-01-22T12:56:53Z</time>
      </trkpt>
      <trkpt lat="45.59535" lon="6.71677">
        <ele>1743.11</ele>
        <time>2009-01-22T12:56:58Z</time>
      </trkpt>
      <trkpt lat="45.59515" lon="6.71677">
        <ele>1734.203</ele>
        <time>2009-01-22T12:57:38Z</time>
      </trkpt>
      <trkpt lat="45.595" lon="6.71663">
        <ele>1732.271</ele>
        <time>2009-01-22T12:57:41Z</time>
      </trkpt>
      <trkpt lat="45.59479" lon="6.71664">
        <ele>1725.421</ele>
        <time>2009-01-22T12:57:46Z</time>
      </trkpt>
      <trkpt lat="45.59464" lon="6.71683">
        <ele>1719.978</ele>
        <time>2009-01-22T12:57:51Z</time>
      </trkpt>
      <trkpt lat="45.59468" lon="6.7171">
        <ele>1718.376</ele>
        <time>2009-01-22T12:58:09Z</time>
      </trkpt>
      <trkpt lat="45.59469" lon="6.71735">
        <ele>1715.331</ele>
        <time>2009-01-22T12:58:12Z</time>
      </trkpt>
      <trkpt lat="45.59469" lon="6.71766">
        <ele>1713.58</ele>
        <time>2009-01-22T12:58:16Z</time>
      </trkpt>
      <trkpt lat="45.5946" lon="6.71788">
        <ele>1706.098</ele>
        <time>2009-01-22T12:59:47Z</time>
      </trkpt>
      <trkpt lat="45.5947" lon="6.71812">
        <ele>1704.577</ele>
        <time>2009-01-22T12:59:54Z</time>
      </trkpt>
      <trkpt lat="45.59477" lon="6.71841">
        <ele>1701.558</ele>
        <time>2009-01-22T12:59:59Z</time>
      </trkpt>
      <trkpt lat="45.59459" lon="6.71841">
        <ele>1697.436</ele>
        <time>2009-01-22T13:00:07Z</time>
      </trkpt>
      <trkpt lat="45.59437" lon="6.71843">
        <ele>1693.508</ele>
        <time>2009-01-22T13:00:11Z</time>
      </trkpt>
      <trkpt lat="45.59423" lon="6.71861">
        <ele>1687.386</ele>
        <time>2009-01-22T13:00:15Z</time>
      </trkpt>
      <trkpt lat="45.59411" lon="6.7188">
        <ele>1679.926</ele>
        <time>2009-01-22T13:00:21Z</time>
      </trkpt>
      <trkpt lat="45.59402" lon="6.71899">
        <ele>1671.601</ele>
        <time>2009-01-22T13:00:26Z</time>
      </trkpt>
      <trkpt lat="45.59393" lon="6.71921">
        <ele>1664.171</ele>
        <time>2009-01-22T13:00:30Z</time>
      </trkpt>
      <trkpt lat="45.59379" lon="6.71947">
        <ele>1657.104</ele>
        <time>2009-01-22T13:00:34Z</time>
      </trkpt>
      <trkpt lat="45.59362" lon="6.71937">
        <ele>1655.06</ele>
        <time>2009-01-22T13:00:40Z</time>
      </trkpt>
      <trkpt lat="45.59346" lon="6.71926">
        <ele>1653.489</ele>
        <time>2009-01-22T13:00:51Z</time>
      </trkpt>
      <trkpt lat="45.59327" lon="6.71913">
        <ele>1650.469</ele>
        <time>2009-01-22T13:00:57Z</time>
      </trkpt>
      <trkpt lat="45.5931" lon="6.71897">
        <ele>1648.017</ele>
        <time>2009-01-22T13:01:02Z</time>
      </trkpt>
      <trkpt lat="45.59295" lon="6.71879">
        <ele>1645.98</ele>
        <time>2009-01-22T13:01:07Z</time>
      </trkpt>
      <trkpt lat="45.59281" lon="6.71894">
        <ele>1638.14</ele>
        <time>2009-01-22T13:01:13Z</time>
      </trkpt>
      <trkpt lat="45.59271" lon="6.71914">
        <ele>1630.776</ele>
        <time>2009-01-22T13:01:18Z</time>
      </trkpt>
      <trkpt lat="45.59255" lon="6.71928">
        <ele>1624.592</ele>
        <time>2009-01-22T13:01:23Z</time>
      </trkpt>
      <trkpt lat="45.59244" lon="6.71951">
        <ele>1616.15</ele>
        <time>2009-01-22T13:01:29Z</time>
      </trkpt>
      <trkpt lat="45.59246" lon="6.71976">
        <ele>1611.69</ele>
        <time>2009-01-22T13:01:35Z</time>
      </trkpt>
      <trkpt lat="45.59256" lon="6.71999">
        <ele>1608.534</ele>
        <time>2009-01-22T13:01:44Z</time>
      </trkpt>
      <trkpt lat="45.59266" lon="6.72024">
        <ele>1605.325</ele>
        <time>2009-01-22T13:01:51Z</time>
      </trkpt>
      <trkpt lat="45.59277" lon="6.72046">
        <ele>1601.942</ele>
        <time>2009-01-22T13:01:58Z</time>
      </trkpt>
      <trkpt lat="45.59268" lon="6.72071">
        <ele>1595.208</ele>
        <time>2009-01-22T13:02:06Z</time>
      </trkpt>
      <trkpt lat="45.59252" lon="6.72081">
        <ele>1587.653</ele>
        <time>2009-01-22T13:02:13Z</time>
      </trkpt>
      <trkpt lat="45.59255" lon="6.72107">
        <ele>1584.155</ele>
        <time>2009-01-22T13:02:35Z</time>
      </trkpt>
      <trkpt lat="45.59239" lon="6.72118">
        <ele>1575.819</ele>
        <time>2009-01-22T13:02:42Z</time>
      </trkpt>
      <trkpt lat="45.59225" lon="6.72133">
        <ele>1567.607</ele>
        <time>2009-01-22T13:02:52Z</time>
      </trkpt>
      <trkpt lat="45.59215" lon="6.72153">
        <ele>1560.398</ele>
        <time>2009-01-22T13:02:59Z</time>
      </trkpt>
      <trkpt lat="45.59201" lon="6.72169">
        <ele>1552.23</ele>
        <time>2009-01-22T13:03:06Z</time>
      </trkpt>
      <trkpt lat="45.59195" lon="6.72197">
        <ele>1544.754</ele>
        <time>2009-01-22T13:03:12Z</time>
      </trkpt>
      <trkpt lat="45.59179" lon="6.72188">
        <ele>1539.475</ele>
        <time>2009-01-22T13:03:58Z</time>
      </trkpt>
      <trkpt lat="45.59163" lon="6.72176">
        <ele>1538.19</ele>
        <time>2009-01-22T13:04:13Z</time>
      </trkpt>
      <trkpt lat="45.59145" lon="6.7216">
        <ele>1534.599</ele>
        <time>2009-01-22T13:04:21Z</time>
      </trkpt>
      <trkpt lat="45.59129" lon="6.72144">
        <ele>1529.998</ele>
        <time>2009-01-22T13:04:28Z</time>
      </trkpt>
      <trkpt lat="45.59113" lon="6.72139">
        <ele>1522.1</ele>
        <time>2009-01-22T13:05:49Z</time>
      </trkpt>
      <trkpt lat="45.591" lon="6.72119">
        <ele>1519.06</ele>
        <time>2009-01-22T13:05:58Z</time>
      </trkpt>
      <trkpt lat="45.59083" lon="6.72102">
        <ele>1515.386</ele>
        <time>2009-01-22T13:06:06Z</time>
      </trkpt>
      <trkpt lat="45.59068" lon="6.72113">
        <ele>1506.062</ele>
        <time>2009-01-22T13:06:24Z</time>
      </trkpt>
      <trkpt lat="45.59053" lon="6.721">
        <ele>1502.194</ele>
        <time>2009-01-22T13:06:31Z</time>
      </trkpt>
      <trkpt lat="45.59059" lon="6.72126">
        <ele>1499.753</ele>
        <time>2009-01-22T13:06:41Z</time>
      </trkpt>
      <trkpt lat="45.59063" lon="6.72151">
        <ele>1495.391</ele>
        <time>2009-01-22T13:06:47Z</time>
      </trkpt>
      <trkpt lat="45.59053" lon="6.72178">
        <ele>1488.182</ele>
        <time>2009-01-22T13:06:52Z</time>
      </trkpt>
      <trkpt lat="45.59046" lon="6.7221">
        <ele>1482.945</ele>
        <time>2009-01-22T13:06:56Z</time>
      </trkpt>
      <trkpt lat="45.59041" lon="6.72235">
        <ele>1478.318</ele>
        <time>2009-01-22T13:06:59Z</time>
      </trkpt>
      <trkpt lat="45.59032" lon="6.72257">
        <ele>1472.202</ele>
        <time>2009-01-22T13:07:02Z</time>
      </trkpt>
      <trkpt lat="45.59027" lon="6.72287">
        <ele>1467.348</ele>
        <time>2009-01-22T13:07:06Z</time>
      </trkpt>
      <trkpt lat="45.59029" lon="6.72313">
        <ele>1466.821</ele>
        <time>2009-01-22T13:07:10Z</time>
      </trkpt>
      <trkpt lat="45.59013" lon="6.72323">
        <ele>1459.117</ele>
        <time>2009-01-22T13:08:01Z</time>
      </trkpt>
      <trkpt lat="45.59013" lon="6.7235">
        <ele>1451.583</ele>
        <time>2009-01-22T13:08:14Z</time>
      </trkpt>
      <trkpt lat="45.59017" lon="6.72375">
        <ele>1447.952</ele>
        <time>2009-01-22T13:08:19Z</time>
      </trkpt>
      <trkpt lat="45.58998" lon="6.72371">
        <ele>1443.334</ele>
        <time>2009-01-22T13:08:24Z</time>
      </trkpt>
      <trkpt lat="45.59" lon="6.72399">
        <ele>1439.33</ele>
        <time>2009-01-22T13:08:29Z</time>
      </trkpt>
      <trkpt lat="45.58981" lon="6.72389">
        <ele>1436.47</ele>
        <time>2009-01-22T13:08:34Z</time>
      </trkpt>
      <trkpt lat="45.58977" lon="6.72414">
        <ele>1428.897</ele>
        <time>2009-01-22T13:08:42Z</time>
      </trkpt>
      <trkpt lat="45.58964" lon="6.72427">
        <ele>1420.027</ele>
        <time>2009-01-22T13:08:49Z</time>
      </trkpt>
      <trkpt lat="45.58947" lon="6.72441">
        <ele>1412.976</ele>
        <time>2009-01-22T13:08:55Z</time>
      </trkpt>
      <trkpt lat="45.58928" lon="6.72439">
        <ele>1407.371</ele>
        <time>2009-01-22T13:09:00Z</time>
      </trkpt>
      <trkpt lat="45.5893" lon="6.72464">
        <ele>1404.004</ele>
        <time>2009-01-22T13:09:04Z</time>
      </trkpt>
      <trkpt lat="45.58907" lon="6.72465">
        <ele>1397.668</ele>
        <time>2009-01-22T13:09:09Z</time>
      </trkpt>
      <trkpt lat="45.58892" lon="6.72488">
        <ele>1391.579</ele>
        <time>2009-01-22T13:09:14Z</time>
      </trkpt>
      <trkpt lat="45.58889" lon="6.72517">
        <ele>1387.47</ele>
        <time>2009-01-22T13:09:20Z</time>
      </trkpt>
      <trkpt lat="45.58886" lon="6.72543">
        <ele>1382.655</ele>
        <time>2009-01-22T13:09:25Z</time>
      </trkpt>
      <trkpt lat="45.58882" lon="6.72572">
        <ele>1376.611</ele>
        <time>2009-01-22T13:09:31Z</time>
      </trkpt>
      <trkpt lat="45.58863" lon="6.72583">
        <ele>1371.279</ele>
        <time>2009-01-22T13:09:36Z</time>
      </trkpt>
      <trkpt lat="45.58865" lon="6.72609">
        <ele>1367.337</ele>
        <time>2009-01-22T13:09:41Z</time>
      </trkpt>
      <trkpt lat="45.5885" lon="6.72627">
        <ele>1362.017</ele>
        <time>2009-01-22T13:09:47Z</time>
      </trkpt>
      <trkpt lat="45.58849" lon="6.72654">
        <ele>1357.744</ele>
        <time>2009-01-22T13:09:57Z</time>
      </trkpt>
      <trkpt lat="45.58862" lon="6.72677">
        <ele>1354.404</ele>
        <time>2009-01-22T13:10:03Z</time>
      </trkpt>
      <trkpt lat="45.58876" lon="6.72697">
        <ele>1352.704</ele>
        <time>2009-01-22T13:10:08Z</time>
      </trkpt>
      <trkpt lat="45.58871" lon="6.72725">
        <ele>1346.942</ele>
        <time>2009-01-22T13:10:13Z</time>
      </trkpt>
      <trkpt lat="45.5888" lon="6.72752">
        <ele>1347.216</ele>
        <time>2009-01-22T13:10:18Z</time>
      </trkpt>
      <trkpt lat="45.58892" lon="6.72772">
        <ele>1344.7</ele>
        <time>2009-01-22T13:10:24Z</time>
      </trkpt>
      <trkpt lat="45.58874" lon="6.72782">
        <ele>1339.631</ele>
        <time>2009-01-22T13:11:31Z</time>
      </trkpt>
      <trkpt lat="45.5888" lon="6.72806">
        <ele>1337.83</ele>
        <time>2009-01-22T13:12:20Z</time>
      </trkpt>
      <trkpt lat="45.5889" lon="6.72828">
        <ele>1336.322</ele>
        <time>2009-01-22T13:12:39Z</time>
      </trkpt>
    </trkseg>
  </trk>
</gpx>